Time;durP1;ratioP1;P1;durP2;ratioP2;P2;SDS_P1;SDS_P2;PMS_P1;PMS_P2;Temp;Humidity;BMP_temperature;BMP_pressure;BME280_temperature;BME280_humidity;BME280_pressure;Samples;Min_cycle;Max_cycle;Signal;HPM_P1;HPM_P2
2023/06/18 00:02:06;;;;;;;;;;;21.50;63.00;;;;;;6271105;28;20021;-72
2023/06/18 00:05:07;;;;;;;;;;;21.50;63.00;;;;;;6270150;28;20402;-71
2023/06/18 00:08:08;;;;;;;;;;;21.50;62.90;;;;;;6270574;28;19913;-71
2023/06/18 00:11:09;;;;;;;;;;;21.50;62.90;;;;;;6270443;28;19916;-72
2023/06/18 00:14:09;;;;;;;;;;;21.50;62.90;;;;;;6270389;28;19912;-72
2023/06/18 00:17:10;;;;;;;;;;;21.50;62.90;;;;;;6270111;28;19913;-72
2023/06/18 00:20:11;;;;;;;;;;;21.50;62.90;;;;;;6270332;28;19923;-72
2023/06/18 00:23:11;;;;;;;;;;;21.50;62.90;;;;;;6270177;28;20375;-71
2023/06/18 00:26:12;;;;;;;;;;;21.50;62.90;;;;;;6267653;28;19916;-72
2023/06/18 00:29:12;;;;;;;;;;;21.50;62.90;;;;;;6270060;28;19912;-72
2023/06/18 00:32:14;;;;;;;;;;;21.50;62.90;;;;;;6269700;28;20003;-72
2023/06/18 00:35:15;;;;;;;;;;;21.50;62.90;;;;;;6269580;28;19955;-72
2023/06/18 00:38:16;;;;;;;;;;;21.50;62.90;;;;;;6269945;28;20011;-72
2023/06/18 00:41:17;;;;;;;;;;;21.50;62.90;;;;;;6269366;28;19920;-72
2023/06/18 00:44:20;;;;;;;;;;;21.50;62.90;;;;;;6269248;28;19909;-72
2023/06/18 00:47:21;;;;;;;;;;;21.50;62.90;;;;;;6269489;28;20008;-71
2023/06/18 00:50:21;;;;;;;;;;;21.50;62.90;;;;;;6269675;28;19909;-71
2023/06/18 00:53:22;;;;;;;;;;;21.50;62.90;;;;;;6269156;28;20236;-72
2023/06/18 00:56:25;;;;;;;;;;;21.50;62.90;;;;;;6269309;28;19913;-72
2023/06/18 00:59:27;;;;;;;;;;;21.50;62.90;;;;;;6268901;28;19966;-72
2023/06/18 01:02:28;;;;;;;;;;;21.50;62.90;;;;;;6269393;28;19956;-72
2023/06/18 01:05:31;;;;;;;;;;;21.50;62.90;;;;;;6268596;28;19943;-72
2023/06/18 01:08:33;;;;;;;;;;;21.50;62.90;;;;;;6269174;28;19967;-72
2023/06/18 01:11:40;;;;;;;;;;;21.50;62.90;;;;;;6268308;28;19966;-71
2023/06/18 01:14:50;;;;;;;;;;;21.50;62.90;;;;;;6268813;28;20383;-72
2023/06/18 01:17:51;;;;;;;;;;;21.50;62.90;;;;;;6268337;28;19943;-72
2023/06/18 01:20:52;;;;;;;;;;;21.50;63.70;;;;;;6268869;28;19920;-72
2023/06/18 01:23:55;;;;;;;;;;;21.50;62.90;;;;;;6268348;28;19909;-72
2023/06/18 01:26:57;;;;;;;;;;;21.50;62.90;;;;;;6268491;28;19909;-71
2023/06/18 01:29:58;;;;;;;;;;;21.50;62.90;;;;;;6268840;28;19908;-72
2023/06/18 01:32:58;;;;;;;;;;;21.50;62.90;;;;;;6267341;28;19963;-72
2023/06/18 01:36:00;;;;;;;;;;;21.50;62.90;;;;;;6268802;28;19909;-72
2023/06/18 01:39:09;;;;;;;;;;;21.50;62.90;;;;;;6268229;28;20436;-72
2023/06/18 01:42:12;;;;;;;;;;;21.50;62.90;;;;;;6268967;28;19970;-72
2023/06/18 01:45:21;;;;;;;;;;;21.50;62.90;;;;;;6268292;28;20389;-72
2023/06/18 01:48:22;;;;;;;;;;;21.50;62.90;;;;;;6268230;28;19909;-72
2023/06/18 01:51:23;;;;;;;;;;;21.50;62.90;;;;;;6268372;28;19913;-71
2023/06/18 01:54:25;;;;;;;;;;;21.50;62.90;;;;;;6267845;28;19908;-72
2023/06/18 01:57:27;;;;;;;;;;;21.50;62.90;;;;;;6268395;28;19913;-71
2023/06/18 02:00:27;;;;;;;;;;;21.50;62.90;;;;;;6268471;28;19913;-71
2023/06/18 02:03:28;;;;;;;;;;;21.50;62.90;;;;;;6268322;28;19932;-72
2023/06/18 02:06:29;;;;;;;;;;;21.50;62.90;;;;;;6268357;28;20287;-72
2023/06/18 02:09:30;;;;;;;;;;;21.50;62.90;;;;;;6268791;28;19909;-72
2023/06/18 02:12:32;;;;;;;;;;;21.50;62.90;;;;;;6268146;28;19913;-72
2023/06/18 02:15:34;;;;;;;;;;;21.50;62.90;;;;;;6268487;28;20294;-72
2023/06/18 02:18:35;;;;;;;;;;;21.50;62.90;;;;;;6267966;28;19913;-71
2023/06/18 02:21:36;;;;;;;;;;;21.50;62.90;;;;;;6268000;28;20360;-72
2023/06/18 02:24:37;;;;;;;;;;;21.50;62.90;;;;;;6267573;28;20378;-72
2023/06/18 02:27:38;;;;;;;;;;;21.50;62.90;;;;;;6267833;28;19966;-72
2023/06/18 02:30:38;;;;;;;;;;;21.50;62.90;;;;;;6267916;28;20027;-72
2023/06/18 02:33:39;;;;;;;;;;;21.50;62.90;;;;;;6267740;28;20291;-72
2023/06/18 02:36:39;;;;;;;;;;;21.50;62.90;;;;;;6267819;28;20008;-72
2023/06/18 02:39:40;;;;;;;;;;;21.50;62.90;;;;;;6267861;28;20294;-72
2023/06/18 02:42:47;;;;;;;;;;;21.50;62.90;;;;;;6267700;28;20023;-72
2023/06/18 02:45:50;;;;;;;;;;;21.50;63.00;;;;;;6268228;28;19962;-71
2023/06/18 02:48:50;;;;;;;;;;;21.50;62.90;;;;;;6268050;28;19913;-72
2023/06/18 02:51:51;;;;;;;;;;;21.50;63.00;;;;;;6267369;28;19963;-72
2023/06/18 02:54:51;;;;;;;;;;;21.50;62.90;;;;;;6267610;28;19909;-72
2023/06/18 02:57:52;;;;;;;;;;;21.50;62.90;;;;;;6267606;28;19917;-71
2023/06/18 03:00:52;;;;;;;;;;;21.50;62.90;;;;;;6267306;28;19917;-72
2023/06/18 03:03:53;;;;;;;;;;;21.50;62.90;;;;;;6267332;28;20019;-72
2023/06/18 03:06:57;;;;;;;;;;;21.50;62.90;;;;;;6267584;28;20376;-72
2023/06/18 03:09:57;;;;;;;;;;;21.50;62.90;;;;;;6270915;28;19936;-72
2023/06/18 03:12:58;;;;;;;;;;;21.50;63.00;;;;;;6271355;28;19909;-72
2023/06/18 03:15:58;;;;;;;;;;;21.50;63.00;;;;;;6271654;28;19966;-72
2023/06/18 03:18:59;;;;;;;;;;;21.50;63.00;;;;;;6271560;28;19967;-72
2023/06/18 03:21:59;;;;;;;;;;;21.50;62.90;;;;;;6271512;28;20577;-73
2023/06/18 03:25:00;;;;;;;;;;;21.50;63.80;;;;;;6271623;28;19990;-72
2023/06/18 03:28:01;;;;;;;;;;;21.50;62.90;;;;;;6271456;28;19909;-72
2023/06/18 03:31:02;;;;;;;;;;;21.50;62.90;;;;;;6271277;28;19916;-72
2023/06/18 03:34:02;;;;;;;;;;;21.50;62.90;;;;;;6271663;28;19966;-72
2023/06/18 03:37:03;;;;;;;;;;;21.50;62.90;;;;;;6271430;28;20185;-72
2023/06/18 03:40:04;;;;;;;;;;;21.50;62.90;;;;;;6271189;28;19912;-72
2023/06/18 03:43:05;;;;;;;;;;;21.50;62.90;;;;;;6271660;28;19916;-72
2023/06/18 03:46:05;;;;;;;;;;;21.50;62.90;;;;;;6242495;28;19913;-72
2023/06/18 03:49:06;;;;;;;;;;;21.50;63.00;;;;;;6242983;28;20369;-71
2023/06/18 03:52:07;;;;;;;;;;;21.50;62.90;;;;;;6243048;28;19991;-71
2023/06/18 03:55:08;;;;;;;;;;;21.50;63.00;;;;;;6242853;28;19937;-72
2023/06/18 03:58:08;;;;;;;;;;;21.50;62.90;;;;;;6242658;28;20011;-71
2023/06/18 04:01:09;;;;;;;;;;;21.50;62.90;;;;;;6242586;28;20138;-72
2023/06/18 04:04:10;;;;;;;;;;;21.50;62.90;;;;;;6242331;28;20371;-72
2023/06/18 04:07:11;;;;;;;;;;;21.50;62.90;;;;;;6242652;28;20292;-72
2023/06/18 04:10:11;;;;;;;;;;;21.50;62.90;;;;;;6242271;28;20291;-72
2023/06/18 04:13:13;;;;;;;;;;;21.50;62.90;;;;;;6242782;28;20331;-72
2023/06/18 04:16:13;;;;;;;;;;;21.50;62.90;;;;;;6251038;28;20035;-72
2023/06/18 04:19:14;;;;;;;;;;;21.50;62.90;;;;;;6269165;28;19927;-72
2023/06/18 04:22:14;;;;;;;;;;;21.50;62.90;;;;;;6270159;28;20284;-72
2023/06/18 04:25:15;;;;;;;;;;;21.50;62.90;;;;;;6270172;28;20638;-72
2023/06/18 04:28:15;;;;;;;;;;;21.50;62.90;;;;;;6269966;28;20000;-72
2023/06/18 04:31:16;;;;;;;;;;;21.50;62.90;;;;;;6269992;28;20004;-71
2023/06/18 04:34:16;;;;;;;;;;;21.50;62.90;;;;;;6270046;28;19913;-72
2023/06/18 04:37:17;;;;;;;;;;;21.50;62.90;;;;;;6269408;28;19939;-72
2023/06/18 04:40:18;;;;;;;;;;;21.50;62.90;;;;;;6269544;28;19920;-72
2023/06/18 04:43:18;;;;;;;;;;;21.50;62.90;;;;;;6269962;28;19959;-72
2023/06/18 04:46:19;;;;;;;;;;;21.50;62.90;;;;;;6269557;28;19908;-72
2023/06/18 04:49:20;;;;;;;;;;;21.50;62.90;;;;;;6269812;28;20011;-72
2023/06/18 04:52:20;;;;;;;;;;;21.50;62.90;;;;;;6269077;28;19912;-72
2023/06/18 04:55:21;;;;;;;;;;;21.50;62.90;;;;;;6269707;28;20322;-72
2023/06/18 04:58:22;;;;;;;;;;;21.50;62.90;;;;;;6268970;28;19912;-72
2023/06/18 05:01:22;;;;;;;;;;;21.50;62.90;;;;;;6264628;28;19916;-72
2023/06/18 05:04:23;;;;;;;;;;;21.50;62.90;;;;;;6263366;28;19920;-72
2023/06/18 05:07:23;;;;;;;;;;;21.50;62.90;;;;;;6269076;28;19912;-72
2023/06/18 05:10:24;;;;;;;;;;;21.50;62.90;;;;;;6269123;28;20363;-72
2023/06/18 05:13:25;;;;;;;;;;;21.50;62.90;;;;;;6269081;28;20003;-72
2023/06/18 05:16:25;;;;;;;;;;;21.50;62.90;;;;;;6268625;28;19947;-72
2023/06/18 05:19:25;;;;;;;;;;;21.50;62.90;;;;;;6268664;28;19913;-72
2023/06/18 05:22:26;;;;;;;;;;;21.50;62.90;;;;;;6268956;28;20305;-72
2023/06/18 05:25:26;;;;;;;;;;;21.50;62.90;;;;;;6268913;28;19909;-71
2023/06/18 05:28:27;;;;;;;;;;;21.50;62.90;;;;;;6268473;28;19915;-72
2023/06/18 05:31:28;;;;;;;;;;;21.50;62.90;;;;;;6268342;28;20046;-72
2023/06/18 05:34:28;;;;;;;;;;;21.50;62.90;;;;;;6268328;28;19913;-71
2023/06/18 05:37:29;;;;;;;;;;;21.50;62.90;;;;;;6268214;28;20287;-71
2023/06/18 05:40:30;;;;;;;;;;;21.50;62.90;;;;;;6267973;28;20363;-71
2023/06/18 05:43:30;;;;;;;;;;;21.40;62.80;;;;;;6268840;28;19920;-72
2023/06/18 05:46:31;;;;;;;;;;;21.50;63.00;;;;;;6268263;28;19913;-72
2023/06/18 05:49:31;;;;;;;;;;;21.40;62.90;;;;;;6268023;28;19909;-71
2023/06/18 05:52:32;;;;;;;;;;;21.50;62.90;;;;;;6268663;28;19967;-72
2023/06/18 05:55:32;;;;;;;;;;;21.50;63.00;;;;;;6268269;28;19909;-71
2023/06/18 05:58:33;;;;;;;;;;;21.40;62.80;;;;;;6263180;28;19912;-72
2023/06/18 06:01:33;;;;;;;;;;;21.50;62.90;;;;;;6267941;28;19909;-72
2023/06/18 06:04:34;;;;;;;;;;;21.50;63.00;;;;;;6267980;28;19928;-72
2023/06/18 06:07:35;;;;;;;;;;;21.50;62.90;;;;;;6268134;28;19939;-72
2023/06/18 06:10:36;;;;;;;;;;;21.50;62.90;;;;;;6268075;28;19913;-72
2023/06/18 06:13:37;;;;;;;;;;;21.50;63.00;;;;;;6267841;28;20100;-72
2023/06/18 06:16:37;;;;;;;;;;;21.40;62.90;;;;;;6268307;28;19917;-72
2023/06/18 06:19:38;;;;;;;;;;;21.50;63.00;;;;;;6267969;28;19931;-71
2023/06/18 06:22:38;;;;;;;;;;;21.50;63.00;;;;;;6267435;28;19919;-72
2023/06/18 06:25:39;;;;;;;;;;;21.50;62.90;;;;;;6268311;28;19958;-72
2023/06/18 06:28:40;;;;;;;;;;;21.50;63.00;;;;;;6267903;28;20011;-72
2023/06/18 06:31:40;;;;;;;;;;;21.50;63.00;;;;;;6267642;28;19952;-72
2023/06/18 06:34:41;;;;;;;;;;;21.50;62.90;;;;;;6267599;28;19909;-72
2023/06/18 06:37:42;;;;;;;;;;;21.50;63.00;;;;;;6267778;28;19909;-72
2023/06/18 06:40:43;;;;;;;;;;;21.50;63.00;;;;;;6267773;28;20330;-71
2023/06/18 06:43:44;;;;;;;;;;;21.50;63.00;;;;;;6269408;28;19909;-71
2023/06/18 06:46:45;;;;;;;;;;;21.50;63.00;;;;;;6272741;28;20376;-72
2023/06/18 06:49:45;;;;;;;;;;;21.50;63.00;;;;;;6271620;28;20007;-72
2023/06/18 06:52:46;;;;;;;;;;;21.40;62.80;;;;;;6272339;28;19909;-72
2023/06/18 06:55:46;;;;;;;;;;;21.40;62.90;;;;;;6271989;28;19913;-72
2023/06/18 06:58:47;;;;;;;;;;;21.50;63.00;;;;;;6272090;28;19956;-72
2023/06/18 07:01:47;;;;;;;;;;;21.50;63.00;;;;;;6271948;28;19919;-72
2023/06/18 07:04:48;;;;;;;;;;;21.50;63.00;;;;;;6271938;28;19956;-72
2023/06/18 07:07:49;;;;;;;;;;;21.50;62.90;;;;;;6272007;28;19916;-71
2023/06/18 07:10:49;;;;;;;;;;;21.50;63.00;;;;;;6271987;28;19913;-72
2023/06/18 07:13:52;;;;;;;;;;;21.50;63.00;;;;;;6271163;28;20708;-72
2023/06/18 07:16:53;;;;;;;;;;;21.50;63.00;;;;;;6272071;28;19913;-72
2023/06/18 07:19:53;;;;;;;;;;;21.50;63.00;;;;;;6271460;28;19923;-73
2023/06/18 07:22:54;;;;;;;;;;;21.40;62.90;;;;;;6271627;28;20286;-71
2023/06/18 07:25:55;;;;;;;;;;;21.50;63.00;;;;;;6271138;28;19916;-71
2023/06/18 07:28:55;;;;;;;;;;;21.50;62.90;;;;;;6271929;28;20433;-72
2023/06/18 07:31:55;;;;;;;;;;;21.50;63.00;;;;;;6271435;28;19970;-72
2023/06/18 07:34:56;;;;;;;;;;;21.40;62.90;;;;;;6271211;28;19966;-71
2023/06/18 07:37:56;;;;;;;;;;;21.50;63.00;;;;;;6271698;28;19916;-72
2023/06/18 07:40:57;;;;;;;;;;;21.40;62.90;;;;;;6271117;28;20027;-72
2023/06/18 07:43:57;;;;;;;;;;;21.40;62.90;;;;;;6270434;28;19916;-71
2023/06/18 07:46:58;;;;;;;;;;;21.50;63.00;;;;;;6271069;28;20224;-72
2023/06/18 07:49:59;;;;;;;;;;;21.40;62.90;;;;;;6271044;28;20306;-71
2023/06/18 07:53:00;;;;;;;;;;;21.40;62.90;;;;;;6271358;28;19909;-72
2023/06/18 07:56:00;;;;;;;;;;;21.50;63.00;;;;;;6270041;28;19944;-72
2023/06/18 07:59:01;;;;;;;;;;;21.50;63.00;;;;;;6270759;28;20379;-72
2023/06/18 08:02:02;;;;;;;;;;;21.40;62.80;;;;;;6270505;28;19909;-72
2023/06/18 08:05:02;;;;;;;;;;;21.40;62.90;;;;;;6270596;28;20376;-72
2023/06/18 08:08:03;;;;;;;;;;;21.50;63.00;;;;;;6270559;28;20117;-72
2023/06/18 08:11:04;;;;;;;;;;;21.40;62.90;;;;;;6270448;28;19909;-72
2023/06/18 08:14:04;;;;;;;;;;;21.40;62.90;;;;;;6270415;28;19912;-72
2023/06/18 08:17:05;;;;;;;;;;;21.40;62.90;;;;;;6269116;28;19917;-72
2023/06/18 08:20:06;;;;;;;;;;;21.50;63.10;;;;;;6270112;28;20050;-71
2023/06/18 08:23:06;;;;;;;;;;;21.40;62.90;;;;;;6269977;28;19912;-72
2023/06/18 08:26:06;;;;;;;;;;;21.40;62.90;;;;;;6270124;28;19908;-72
2023/06/18 08:29:07;;;;;;;;;;;21.40;62.90;;;;;;6257569;28;19920;-72
2023/06/18 08:32:08;;;;;;;;;;;21.40;62.90;;;;;;6266072;28;19913;-72
2023/06/18 08:35:08;;;;;;;;;;;21.40;62.90;;;;;;6267908;28;19987;-72
2023/06/18 08:38:09;;;;;;;;;;;21.40;62.90;;;;;;6268940;28;20003;-72
2023/06/18 08:41:11;;;;;;;;;;;21.40;62.90;;;;;;6268181;28;20416;-72
2023/06/18 08:44:12;;;;;;;;;;;21.40;62.90;;;;;;6263693;28;19955;-72
2023/06/18 08:47:12;;;;;;;;;;;21.40;62.80;;;;;;6271643;28;19913;-72
2023/06/18 08:50:15;;;;;;;;;;;21.40;62.80;;;;;;6268960;28;19920;-72
2023/06/18 08:53:18;;;;;;;;;;;21.40;62.80;;;;;;6269171;28;19912;-72
2023/06/18 08:56:21;;;;;;;;;;;21.40;62.80;;;;;;6266210;28;19920;-72
2023/06/18 08:59:22;;;;;;;;;;;21.40;62.90;;;;;;6278599;28;19928;-71
2023/06/18 09:02:24;;;;;;;;;;;21.40;62.80;;;;;;6268273;28;19909;-72
2023/06/18 09:05:26;;;;;;;;;;;21.40;62.80;;;;;;6265444;28;19920;-72
2023/06/18 09:08:26;;;;;;;;;;;21.40;62.80;;;;;;6266514;28;19916;-72
2023/06/18 09:11:27;;;;;;;;;;;21.40;62.80;;;;;;6266987;28;20419;-72
2023/06/18 09:14:27;;;;;;;;;;;21.40;62.80;;;;;;6267603;28;19916;-72
2023/06/18 09:17:28;;;;;;;;;;;21.40;62.80;;;;;;6285579;28;19920;-72
2023/06/18 09:20:30;;;;;;;;;;;21.40;62.90;;;;;;6274628;28;20338;-71
2023/06/18 09:23:31;;;;;;;;;;;21.40;62.80;;;;;;6262495;28;19956;-72
2023/06/18 09:26:33;;;;;;;;;;;21.40;63.70;;;;;;6256256;28;20395;-72
2023/06/18 09:29:36;;;;;;;;;;;21.40;62.80;;;;;;6265258;28;19936;-71
2023/06/18 09:32:49;;;;;;;;;;;21.40;62.80;;;;;;6267058;28;19991;-71
2023/06/18 09:35:57;;;;;;;;;;;21.40;62.80;;;;;;6266765;28;19916;-72
2023/06/18 09:38:57;;;;;;;;;;;21.40;62.80;;;;;;6266693;28;19917;-71
2023/06/18 09:42:05;;;;;;;;;;;21.40;62.90;;;;;;6266189;28;19936;-72
2023/06/18 09:45:06;;;;;;;;;;;21.40;62.80;;;;;;6267046;28;19971;-71
2023/06/18 09:48:06;;;;;;;;;;;21.40;62.90;;;;;;6266654;28;19917;-72
2023/06/18 09:51:07;;;;;;;;;;;21.40;62.80;;;;;;6265480;28;19916;-72
2023/06/18 09:54:08;;;;;;;;;;;21.40;62.90;;;;;;6267725;28;19955;-72
2023/06/18 09:57:10;;;;;;;;;;;21.40;62.80;;;;;;6265894;28;20257;-72
2023/06/18 10:00:12;;;;;;;;;;;21.40;62.90;;;;;;6266463;28;19966;-72
2023/06/18 10:03:12;;;;;;;;;;;21.40;62.80;;;;;;6265955;28;20425;-72
2023/06/18 10:06:13;;;;;;;;;;;21.40;62.80;;;;;;6266271;28;19913;-72
2023/06/18 10:09:13;;;;;;;;;;;21.40;62.80;;;;;;6266390;28;19913;-72
2023/06/18 10:12:15;;;;;;;;;;;21.40;62.80;;;;;;6266277;28;19909;-72
2023/06/18 10:15:16;;;;;;;;;;;21.40;62.90;;;;;;6266645;28;20291;-72
2023/06/18 10:18:22;;;;;;;;;;;21.40;62.90;;;;;;6267787;28;20012;-72
2023/06/18 10:21:24;;;;;;;;;;;21.40;62.80;;;;;;6270869;28;19917;-72
2023/06/18 10:24:32;;;;;;;;;;;21.40;62.90;;;;;;6259988;28;19920;-72
2023/06/18 10:27:33;;;;;;;;;;;21.40;62.90;;;;;;6260396;28;20000;-72
2023/06/18 10:30:35;;;;;;;;;;;21.40;62.90;;;;;;6264869;28;20003;-72
2023/06/18 10:33:36;;;;;;;;;;;21.40;62.90;;;;;;6265067;28;19908;-72
2023/06/18 10:36:37;;;;;;;;;;;21.40;62.90;;;;;;6271005;28;19913;-72
2023/06/18 10:39:38;;;;;;;;;;;21.40;62.90;;;;;;6270674;28;20576;-71
2023/06/18 10:42:39;;;;;;;;;;;21.50;63.20;;;;;;6263447;28;19916;-72
2023/06/18 10:45:59;;;;;;;;;;;21.50;62.90;;;;;;6296077;28;19912;-72
2023/06/18 10:49:20;;;;;;;;;;;21.50;62.70;;;;;;6272020;28;20070;-72
2023/06/18 10:52:24;;;;;;;;;;;21.50;62.50;;;;;;6270678;28;19967;-73
2023/06/18 10:55:24;;;;;;;;;;;21.60;62.50;;;;;;6271043;28;20279;-72
2023/06/18 10:58:32;;;;;;;;;;;21.60;62.40;;;;;;6270187;28;19920;-72
2023/06/18 11:01:34;;;;;;;;;;;21.60;62.30;;;;;;6269916;28;19924;-71
2023/06/18 11:04:35;;;;;;;;;;;21.70;62.50;;;;;;6270065;28;20205;-71
2023/06/18 11:07:39;;;;;;;;;;;21.70;62.30;;;;;;6271701;28;19956;-71
2023/06/18 11:10:49;;;;;;;;;;;21.70;62.20;;;;;;6265584;28;20570;-72
2023/06/18 11:13:55;;;;;;;;;;;21.80;62.40;;;;;;6269313;28;19913;-72
2023/06/18 11:17:11;;;;;;;;;;;21.70;62.10;;;;;;6278830;28;19916;-72
2023/06/18 11:20:12;;;;;;;;;;;21.70;62.30;;;;;;6271208;28;19913;-72
2023/06/18 11:23:14;;;;;;;;;;;21.70;62.40;;;;;;6268386;28;19920;-72
2023/06/18 11:26:16;;;;;;;;;;;21.70;62.40;;;;;;6270481;28;19999;-72
2023/06/18 11:29:16;;;;;;;;;;;21.80;62.50;;;;;;6270285;28;19912;-72
2023/06/18 11:32:17;;;;;;;;;;;21.80;62.10;;;;;;6270996;28;19913;-72
2023/06/18 11:35:18;;;;;;;;;;;21.80;62.10;;;;;;6271159;28;20020;-72
2023/06/18 11:38:19;;;;;;;;;;;21.80;62.10;;;;;;6262683;28;19913;-72
2023/06/18 11:41:21;;;;;;;;;;;21.80;62.00;;;;;;6270921;28;19912;-73
2023/06/18 11:44:25;;;;;;;;;;;21.80;62.00;;;;;;6270652;28;20509;-72
2023/06/18 11:47:26;;;;;;;;;;;21.90;62.10;;;;;;6271284;28;19959;-72
2023/06/18 11:50:27;;;;;;;;;;;21.80;62.00;;;;;;6271172;28;20360;-72
2023/06/18 11:53:27;;;;;;;;;;;21.80;62.00;;;;;;6270780;28;19909;-72
2023/06/18 11:56:29;;;;;;;;;;;21.80;62.00;;;;;;6271447;28;19915;-72
2023/06/18 11:59:31;;;;;;;;;;;21.80;62.10;;;;;;6270077;28;19967;-74
2023/06/18 12:02:31;;;;;;;;;;;21.80;62.00;;;;;;6270343;28;19999;-72
2023/06/18 12:05:38;;;;;;;;;;;21.80;62.00;;;;;;6269521;28;19916;-72
2023/06/18 12:08:48;;;;;;;;;;;21.80;62.10;;;;;;6270225;28;19917;-73
2023/06/18 12:12:09;;;;;;;;;;;21.80;62.00;;;;;;6264083;28;19913;-72
2023/06/18 12:15:17;;;;;;;;;;;21.80;62.20;;;;;;6266057;28;19916;-72
2023/06/18 12:18:21;;;;;;;;;;;21.80;62.10;;;;;;6270630;28;19912;-74
2023/06/18 12:21:22;;;;;;;;;;;21.80;62.20;;;;;;6276514;28;20389;-72
2023/06/18 12:24:25;;;;;;;;;;;21.80;62.10;;;;;;6282021;28;19913;-72
2023/06/18 12:27:25;;;;;;;;;;;21.80;62.10;;;;;;6270187;28;19913;-71
2023/06/18 12:30:30;;;;;;;;;;;21.80;62.20;;;;;;6269983;28;19944;-71
2023/06/18 12:33:36;;;;;;;;;;;21.80;62.20;;;;;;6269194;28;20444;-71
2023/06/18 12:36:36;;;;;;;;;;;21.80;62.20;;;;;;6270130;28;19948;-71
2023/06/18 12:39:37;;;;;;;;;;;21.80;62.30;;;;;;6269440;28;19961;-71
2023/06/18 12:42:37;;;;;;;;;;;21.80;62.30;;;;;;6269154;28;19920;-73
2023/06/18 12:45:38;;;;;;;;;;;21.70;62.20;;;;;;6269413;28;19909;-71
2023/06/18 12:48:42;;;;;;;;;;;21.70;62.30;;;;;;6269627;28;19909;-71
2023/06/18 12:51:46;;;;;;;;;;;21.80;62.40;;;;;;6268918;28;19917;-71
2023/06/18 12:54:46;;;;;;;;;;;21.80;62.80;;;;;;6269443;28;19913;-71
2023/06/18 12:57:50;;;;;;;;;;;21.80;62.80;;;;;;6268018;28;19939;-72
2023/06/18 13:00:54;;;;;;;;;;;21.80;62.70;;;;;;6268357;28;19916;-71
2023/06/18 13:03:55;;;;;;;;;;;21.80;62.80;;;;;;6269338;28;20047;-72
2023/06/18 13:06:56;;;;;;;;;;;21.80;62.80;;;;;;6269062;28;19913;-72
2023/06/18 13:09:56;;;;;;;;;;;21.70;62.70;;;;;;6269209;28;20590;-71
2023/06/18 13:12:57;;;;;;;;;;;21.70;62.60;;;;;;6269343;28;19912;-72
2023/06/18 13:15:57;;;;;;;;;;;21.70;62.70;;;;;;6268870;28;19935;-72
2023/06/18 13:18:58;;;;;;;;;;;21.70;62.60;;;;;;6268663;28;19917;-71
2023/06/18 13:21:58;;;;;;;;;;;21.70;62.60;;;;;;6270867;28;19915;-72
2023/06/18 13:24:59;;;;;;;;;;;21.70;62.60;;;;;;6275541;28;19919;-71
2023/06/18 13:28:00;;;;;;;;;;;21.70;62.70;;;;;;6268757;28;20042;-72
2023/06/18 13:31:00;;;;;;;;;;;21.70;62.60;;;;;;6268416;28;19998;-71
2023/06/18 13:34:01;;;;;;;;;;;21.70;62.70;;;;;;6268649;28;19913;-72
2023/06/18 13:37:01;;;;;;;;;;;21.70;62.70;;;;;;6265525;28;19908;-71
2023/06/18 13:40:03;;;;;;;;;;;21.70;62.70;;;;;;6266149;28;19920;-71
2023/06/18 13:43:03;;;;;;;;;;;21.70;62.90;;;;;;6245994;28;20414;-71
2023/06/18 13:46:04;;;;;;;;;;;21.70;62.80;;;;;;6250211;28;19913;-71
2023/06/18 13:49:04;;;;;;;;;;;21.70;62.60;;;;;;6237319;28;19966;-71
2023/06/18 13:52:05;;;;;;;;;;;21.70;62.50;;;;;;6265375;28;19920;-72
2023/06/18 13:55:06;;;;;;;;;;;21.70;62.40;;;;;;6266043;28;19912;-72
2023/06/18 13:58:07;;;;;;;;;;;21.80;62.70;;;;;;6255793;28;19929;-72
2023/06/18 14:01:07;;;;;;;;;;;21.80;62.50;;;;;;6265504;28;20007;-72
2023/06/18 14:04:08;;;;;;;;;;;21.80;62.50;;;;;;6266021;28;20422;-72
2023/06/18 14:07:09;;;;;;;;;;;21.80;62.50;;;;;;6265461;28;19969;-72
2023/06/18 14:10:09;;;;;;;;;;;21.80;62.50;;;;;;6266285;28;19919;-71
2023/06/18 14:13:10;;;;;;;;;;;21.80;62.50;;;;;;6265838;28;19912;-72
2023/06/18 14:16:11;;;;;;;;;;;21.80;62.40;;;;;;6265959;28;19913;-72
2023/06/18 14:19:13;;;;;;;;;;;21.80;62.50;;;;;;6265547;28;19917;-72
2023/06/18 14:22:13;;;;;;;;;;;21.80;62.40;;;;;;6264806;28;20363;-72
2023/06/18 14:25:14;;;;;;;;;;;21.80;62.40;;;;;;6265186;28;19916;-72
2023/06/18 14:28:16;;;;;;;;;;;21.80;62.40;;;;;;6265272;28;19909;-72
2023/06/18 14:31:16;;;;;;;;;;;21.80;62.40;;;;;;6265578;28;19915;-72
2023/06/18 14:34:17;;;;;;;;;;;21.80;62.40;;;;;;6265744;28;20653;-72
2023/06/18 14:37:22;;;;;;;;;;;21.80;62.50;;;;;;6265568;28;19916;-73
2023/06/18 14:40:22;;;;;;;;;;;21.80;62.50;;;;;;6264644;28;19917;-72
2023/06/18 14:43:23;;;;;;;;;;;21.80;62.50;;;;;;6265120;28;19920;-72
2023/06/18 14:46:25;;;;;;;;;;;21.80;62.50;;;;;;6265487;28;19963;-71
2023/06/18 14:49:25;;;;;;;;;;;21.80;62.50;;;;;;6264828;28;19995;-72
2023/06/18 14:52:25;;;;;;;;;;;21.80;62.60;;;;;;6265353;28;20564;-71
2023/06/18 14:55:26;;;;;;;;;;;21.70;62.50;;;;;;6265083;28;19917;-72
2023/06/18 14:58:26;;;;;;;;;;;21.70;62.60;;;;;;6264860;28;19917;-71
2023/06/18 15:01:27;;;;;;;;;;;21.70;62.70;;;;;;6265588;28;19909;-72
2023/06/18 15:04:28;;;;;;;;;;;21.70;62.60;;;;;;6266048;28;19929;-71
2023/06/18 15:07:28;;;;;;;;;;;21.70;62.60;;;;;;6269583;28;20425;-72
2023/06/18 15:10:29;;;;;;;;;;;21.70;62.60;;;;;;6269754;28;20066;-71
2023/06/18 15:13:29;;;;;;;;;;;21.70;62.60;;;;;;6269731;28;19909;-71
2023/06/18 15:16:31;;;;;;;;;;;21.70;62.60;;;;;;6269527;28;19948;-72
2023/06/18 15:19:31;;;;;;;;;;;21.70;63.50;;;;;;6268464;28;19925;-72
2023/06/18 15:22:32;;;;;;;;;;;21.70;62.70;;;;;;6269228;28;20329;-72
2023/06/18 15:25:32;;;;;;;;;;;21.70;62.70;;;;;;6269463;28;19915;-71
2023/06/18 15:28:33;;;;;;;;;;;21.70;62.70;;;;;;6268404;28;19908;-72
2023/06/18 15:31:33;;;;;;;;;;;21.70;62.70;;;;;;6269489;28;19916;-71
2023/06/18 15:34:34;;;;;;;;;;;21.70;62.80;;;;;;6268836;28;19940;-71
2023/06/18 15:37:34;;;;;;;;;;;21.70;62.80;;;;;;6269328;28;20581;-71
2023/06/18 15:40:35;;;;;;;;;;;21.70;62.80;;;;;;6268825;28;19921;-72
2023/06/18 15:43:35;;;;;;;;;;;21.70;62.80;;;;;;6268961;28;20003;-72
2023/06/18 15:46:36;;;;;;;;;;;21.60;62.70;;;;;;6269258;28;19919;-72
2023/06/18 15:49:36;;;;;;;;;;;21.60;62.70;;;;;;6268362;28;19912;-71
2023/06/18 15:52:37;;;;;;;;;;;21.70;62.80;;;;;;6268885;28;19909;-72
2023/06/18 15:55:37;;;;;;;;;;;21.70;62.90;;;;;;6265407;28;19995;-72
2023/06/18 15:58:38;;;;;;;;;;;21.70;62.90;;;;;;6266505;28;19916;-72
2023/06/18 16:01:38;;;;;;;;;;;21.60;62.80;;;;;;6266812;28;19909;-72
2023/06/18 16:04:39;;;;;;;;;;;21.60;62.80;;;;;;6266344;28;19921;-72
2023/06/18 16:07:39;;;;;;;;;;;21.60;62.90;;;;;;6267015;28;19938;-72
2023/06/18 16:10:40;;;;;;;;;;;21.60;62.90;;;;;;6265699;28;19920;-72
2023/06/18 16:13:40;;;;;;;;;;;21.60;62.10;;;;;;6257947;28;20281;-71
2023/06/18 16:16:41;;;;;;;;;;;21.70;59.40;;;;;;6263185;28;20004;-71
2023/06/18 16:19:42;;;;;;;;;;;21.70;58.70;;;;;;6265518;28;19946;-71
2023/06/18 16:22:43;;;;;;;;;;;21.80;58.50;;;;;;6266262;28;20268;-72
2023/06/18 16:25:43;;;;;;;;;;;21.90;58.10;;;;;;6264884;28;20427;-72
2023/06/18 16:28:44;;;;;;;;;;;22.00;57.70;;;;;;6265402;28;19920;-72
2023/06/18 16:31:46;;;;;;;;;;;22.10;57.40;;;;;;6266423;28;19919;-71
2023/06/18 16:34:47;;;;;;;;;;;22.20;57.10;;;;;;6265754;28;19916;-72
2023/06/18 16:37:47;;;;;;;;;;;22.20;56.80;;;;;;6266190;28;19956;-72
2023/06/18 16:40:48;;;;;;;;;;;22.20;56.50;;;;;;6264304;28;19921;-71
2023/06/18 16:43:48;;;;;;;;;;;22.30;56.30;;;;;;6265126;28;19956;-71
2023/06/18 16:46:49;;;;;;;;;;;22.30;56.20;;;;;;6265741;28;19917;-72
2023/06/18 16:49:49;;;;;;;;;;;22.40;56.10;;;;;;6265262;28;20015;-71
2023/06/18 16:52:50;;;;;;;;;;;22.40;55.90;;;;;;6254346;28;20362;-71
2023/06/18 16:55:50;;;;;;;;;;;22.40;55.80;;;;;;6264926;28;19917;-71
2023/06/18 16:58:51;;;;;;;;;;;22.40;55.70;;;;;;6261499;28;19916;-71
2023/06/18 17:01:51;;;;;;;;;;;22.40;55.60;;;;;;6261160;28;19995;-71
2023/06/18 17:04:52;;;;;;;;;;;22.40;55.40;;;;;;6265251;28;19924;-71
2023/06/18 17:07:52;;;;;;;;;;;22.40;55.30;;;;;;6265808;28;20327;-71
2023/06/18 17:10:53;;;;;;;;;;;22.50;55.30;;;;;;6264511;28;19913;-72
2023/06/18 17:13:53;;;;;;;;;;;22.50;55.20;;;;;;6265647;28;19912;-71
2023/06/18 17:16:54;;;;;;;;;;;22.50;55.20;;;;;;6265132;28;19912;-71
2023/06/18 17:19:55;;;;;;;;;;;22.50;55.00;;;;;;6264676;28;20015;-71
2023/06/18 17:22:56;;;;;;;;;;;22.50;55.10;;;;;;6265117;28;20006;-71
2023/06/18 17:25:56;;;;;;;;;;;22.50;54.90;;;;;;6264009;28;19915;-71
2023/06/18 17:28:57;;;;;;;;;;;22.50;54.80;;;;;;6264204;28;19912;-71
2023/06/18 17:31:57;;;;;;;;;;;22.50;54.80;;;;;;6264685;28;19975;-71
2023/06/18 17:34:58;;;;;;;;;;;22.50;54.60;;;;;;6263868;28;19952;-71